Time;durP1;ratioP1;P1;durP2;ratioP2;P2;SDS_P1;SDS_P2;PMS_P1;PMS_P2;Temp;Humidity;BMP_temperature;BMP_pressure;BME280_temperature;BME280_humidity;BME280_pressure;Samples;Min_cycle;Max_cycle;Signal;HPM_P1;HPM_P2
2022/03/07 00:01:05;;;;;;;5.77;4.83;;;;;;;-3.05;100.00;97549.28;4958879;28;20230;-51
2022/03/07 00:03:34;;;;;;;6.30;4.40;;;;;;;-3.05;100.00;97551.88;4965733;28;20210;-53
2022/03/07 00:06:02;;;;;;;4.90;4.40;;;;;;;-2.93;100.00;97554.72;4958129;28;20458;-50
2022/03/07 00:08:30;;;;;;;4.70;4.30;;;;;;;-3.07;100.00;97563.28;4962366;28;20757;-54
2022/03/07 00:11:08;;;;;;;4.93;4.53;;;;;;;-3.12;100.00;97555.75;4965175;28;20209;-55
2022/03/07 00:13:36;;;;;;;5.53;4.67;;;;;;;-3.10;100.00;97561.69;4935497;28;20371;-54
2022/03/07 00:16:04;;;;;;;4.80;4.40;;;;;;;-3.09;100.00;97559.94;4924196;28;20242;-51
2022/03/07 00:18:33;;;;;;;5.83;5.40;;;;;;;-3.07;100.00;97563.28;4957979;28;20336;-51
2022/03/07 00:21:02;;;;;;;5.13;4.73;;;;;;;-3.07;100.00;97558.91;4956838;28;20291;-54
2022/03/07 00:23:31;;;;;;;5.20;4.50;;;;;;;-3.14;100.00;97546.44;4967191;28;20205;-54
2022/03/07 00:25:59;;;;;;;4.77;4.40;;;;;;;-3.06;100.00;97557.19;4964136;28;20439;-54
2022/03/07 00:28:29;;;;;;;4.67;4.33;;;;;;;-3.08;100.00;97552.06;4945263;28;20206;-57
2022/03/07 00:30:57;;;;;;;5.23;4.73;;;;;;;-3.15;100.00;97555.13;4926093;28;20249;-53
2022/03/07 00:33:25;;;;;;;5.70;5.20;;;;;;;-3.04;100.00;97560.50;4964591;28;20801;-55
2022/03/07 00:35:53;;;;;;;4.70;4.40;;;;;;;-3.14;100.00;97562.78;4953615;28;20670;-51
2022/03/07 00:38:21;;;;;;;4.70;4.40;;;;;;;-3.11;100.00;97556.63;4964879;28;20202;-54
2022/03/07 00:40:50;;;;;;;6.30;5.50;;;;;;;-3.07;100.00;97563.28;4962994;28;20237;-52
2022/03/07 00:43:21;;;;;;;5.70;5.20;;;;;;;-3.16;100.00;97559.47;4946845;28;20245;-51
2022/03/07 00:45:50;;;;;;;5.20;4.70;;;;;;;-3.11;100.00;97561.78;4926468;28;20241;-51
2022/03/07 00:48:19;;;;;;;5.23;4.73;;;;;;;-3.14;100.00;97564.56;4963337;28;20538;-50
2022/03/07 00:50:49;;;;;;;6.30;5.57;;;;;;;-3.14;100.00;97556.78;4949110;28;20815;-50
2022/03/07 00:53:19;;;;;;;5.37;4.87;;;;;;;-3.17;100.00;97551.78;4964112;28;20921;-52
2022/03/07 00:55:47;;;;;;;5.33;4.93;;;;;;;-3.09;100.00;97557.34;4963547;28;20233;-53
2022/03/07 00:58:15;;;;;;;6.13;5.60;;;;;;;-3.15;100.00;97563.72;4965246;28;20684;-51
2022/03/07 01:00:43;;;;;;;5.33;4.87;;;;;;;-3.07;100.00;97556.31;4937115;28;20210;-52
2022/03/07 01:03:18;;;;;;;5.37;4.87;;;;;;;-3.14;100.00;97559.38;4928614;28;20217;-55
2022/03/07 01:05:47;;;;;;;5.23;4.80;;;;;;;-3.19;100.00;97559.63;4948241;28;20518;-55
2022/03/07 01:08:16;;;;;;;5.40;4.93;;;;;;;-3.12;100.00;97558.34;4962136;28;20709;-48
2022/03/07 01:10:45;;;;;;;5.13;4.83;;;;;;;-3.01;100.00;97560.31;4962817;28;20512;-54
2022/03/07 01:13:13;;;;;;;5.07;4.77;;;;;;;-3.12;100.00;97562.72;4964999;28;20280;-52
2022/03/07 01:15:41;;;;;;;5.10;4.70;;;;;;;-3.11;100.00;97561.78;4935778;28;20234;-53
2022/03/07 01:18:10;;;;;;;6.87;6.23;;;;;;;-3.09;100.00;97565.13;4926727;28;20296;-53
2022/03/07 01:20:39;;;;;;;6.37;5.17;;;;;;;-3.11;100.00;97561.78;4957183;28;20245;-54
2022/03/07 01:23:08;;;;;;;6.63;5.97;;;;;;;-3.14;100.00;97560.19;4945954;28;20493;-54
2022/03/07 01:25:36;;;;;;;5.53;4.83;;;;;;;-3.18;100.00;97558.72;4959447;28;20268;-51
2022/03/07 01:28:04;;;;;;;5.73;5.17;;;;;;;-3.18;100.00;97561.31;4955966;28;20210;-54
2022/03/07 01:30:32;;;;;;;6.20;4.83;;;;;;;-3.09;100.00;97558.19;4939141;28;20236;-54
2022/03/07 01:33:01;;;;;;;6.00;5.50;;;;;;;-3.10;100.00;97542.72;4932858;28;20202;-49
2022/03/07 01:35:29;;;;;;;5.97;5.37;;;;;;;-3.16;100.00;97549.09;4961004;28;20229;-52
2022/03/07 01:37:59;;;;;;;6.17;5.67;;;;;;;-3.19;100.00;97546.69;4947488;28;20269;-53
2022/03/07 01:40:27;;;;;;;6.37;5.87;;;;;;;-3.21;100.00;97545.94;4956811;28;20237;-54
2022/03/07 01:42:55;;;;;;;5.93;5.37;;;;;;;-3.28;100.00;97545.44;4962502;28;20226;-55
2022/03/07 01:45:26;;;;;;;6.17;5.67;;;;;;;-3.26;100.00;97541.00;4957591;28;20987;-51
2022/03/07 01:47:54;;;;;;;6.27;5.67;;;;;;;-3.26;100.00;97538.41;4937652;28;20213;-55
2022/03/07 01:50:22;;;;;;;5.83;5.20;;;;;;;-3.24;100.00;97539.16;4924775;28;20222;-54
2022/03/07 01:52:53;;;;;;;5.73;5.33;;;;;;;-3.27;100.00;97535.94;4947805;28;20256;-56
2022/03/07 01:55:23;;;;;;;5.53;5.13;;;;;;;-3.29;100.00;97533.41;4962242;28;20206;-55
2022/03/07 01:57:52;;;;;;;5.20;4.80;;;;;;;-3.27;100.00;97534.16;4962836;28;20320;-51
2022/03/07 02:00:28;;;;;;;6.57;5.87;;;;;;;-3.31;100.00;97534.44;4941620;28;20293;-54
2022/03/07 02:02:56;;;;;;;7.17;5.93;;;;;;;-3.30;100.00;97539.50;4934331;28;20687;-52
2022/03/07 02:05:25;;;;;;;6.13;5.57;;;;;;;-3.34;100.00;97530.25;4925707;28;20924;-53
2022/03/07 02:07:55;;;;;;;6.43;5.93;;;;;;;-3.48;100.00;97538.81;4944035;28;20206;-53
2022/03/07 02:10:27;;;;;;;6.87;6.27;;;;;;;-3.41;100.00;97537.56;4958488;28;20445;-51
2022/03/07 02:12:55;;;;;;;6.63;6.07;;;;;;;-3.41;100.00;97531.53;4961082;28;20220;-51
2022/03/07 02:15:23;;;;;;;6.70;6.13;;;;;;;-3.40;100.00;97530.59;4957395;28;20198;-50
2022/03/07 02:17:51;;;;;;;7.20;6.50;;;;;;;-3.47;100.00;97527.53;4934187;28;20541;-56
2022/03/07 02:20:20;;;;;;;7.63;6.93;;;;;;;-3.50;100.00;97528.56;4917572;28;20492;-53
2022/03/07 02:22:49;;;;;;;6.60;6.00;;;;;;;-3.54;100.00;97523.63;4960020;28;20362;-52
2022/03/07 02:25:17;;;;;;;7.20;6.60;;;;;;;-3.53;100.00;97525.28;4941689;28;20220;-49
2022/03/07 02:27:47;;;;;;;9.50;6.93;;;;;;;-3.58;100.00;97524.72;4966294;28;20382;-54
2022/03/07 02:30:15;;;;;;;6.63;6.10;;;;;;;-3.50;100.00;97523.38;4959357;28;20844;-50
2022/03/07 02:32:44;;;;;;;7.07;6.43;;;;;;;-3.54;100.00;97526.22;4934621;28;20288;-53
2022/03/07 02:35:13;;;;;;;6.33;5.83;;;;;;;-3.59;100.00;97523.91;4924681;28;21123;-50
2022/03/07 02:37:41;;;;;;;7.17;6.47;;;;;;;-3.60;100.00;97519.59;4962747;28;20197;-51
2022/03/07 02:40:12;;;;;;;7.23;6.53;;;;;;;-3.63;100.00;97519.78;4946561;28;20577;-51
2022/03/07 02:43:00;;;;;;;6.73;6.13;;;;;;;-3.68;100.00;97506.25;4964452;28;20226;-51
2022/03/07 02:45:28;;;;;;;7.47;6.50;;;;;;;-3.65;100.00;97519.03;4966629;28;20217;-48
2022/03/07 02:47:58;;;;;;;7.07;6.47;;;;;;;-3.58;100.00;97519.53;4956198;28;20210;-49
2022/03/07 02:50:27;;;;;;;6.57;5.90;;;;;;;-3.67;100.00;97523.47;4916716;28;20937;-48
2022/03/07 02:52:56;;;;;;;7.33;6.63;;;;;;;-3.61;100.00;97530.91;4959620;28;20202;-52
2022/03/07 02:55:25;;;;;;;7.53;6.83;;;;;;;-3.67;100.00;97532.09;4946970;28;20376;-55
2022/03/07 02:57:54;;;;;;;6.77;5.90;;;;;;;-3.64;100.00;97529.34;4966512;28;20333;-50
2022/03/07 03:00:22;;;;;;;5.97;5.47;;;;;;;-3.70;100.00;97529.69;4967763;28;20717;-54
2022/03/07 03:02:50;;;;;;;7.40;6.83;;;;;;;-3.70;100.00;97526.25;4963145;28;20305;-51
2022/03/07 03:05:19;;;;;;;7.47;6.80;;;;;;;-3.66;100.00;97527.72;4898942;28;22519;-54
2022/03/07 03:07:51;;;;;;;7.20;6.27;;;;;;;-3.91;100.00;97508.41;4959774;28;20206;-52
2022/03/07 03:10:19;;;;;;;8.43;7.27;;;;;;;-3.84;100.00;97530.44;4950821;28;20752;-53
2022/03/07 03:12:53;;;;;;;6.83;6.23;;;;;;;-3.86;100.00;97524.53;4962420;28;20198;-53
2022/03/07 03:15:21;;;;;;;6.97;6.43;;;;;;;-3.80;100.00;97520.72;4962257;28;20406;-53
2022/03/07 03:17:52;;;;;;;6.37;5.70;;;;;;;-3.99;100.00;97528.69;4964360;28;20217;-52
2022/03/07 03:20:20;;;;;;;7.63;6.53;;;;;;;-4.01;100.00;97520.16;4895513;28;20978;-51
2022/03/07 03:22:48;;;;;;;8.13;6.40;;;;;;;-4.05;100.00;97529.03;4967332;28;20258;-49
2022/03/07 03:25:16;;;;;;;6.97;6.30;;;;;;;-4.04;100.00;97528.97;4963946;28;20293;-54
2022/03/07 03:27:44;;;;;;;7.73;6.97;;;;;;;-4.05;100.00;97527.28;4952178;28;20249;-53
2022/03/07 03:30:15;;;;;;;6.93;6.30;;;;;;;-3.99;100.00;97523.50;4959450;28;20201;-50
2022/03/07 03:32:43;;;;;;;6.70;6.10;;;;;;;-4.02;100.00;97521.94;4962022;28;20293;-54
2022/03/07 03:35:11;;;;;;;8.57;7.10;;;;;;;-3.98;100.00;97533.78;4933874;28;20344;-53
2022/03/07 03:37:40;;;;;;;7.40;6.70;;;;;;;-3.93;100.00;97539.53;4922381;28;20222;-50
2022/03/07 03:40:10;;;;;;;7.73;6.00;;;;;;;-4.03;100.00;97537.53;4960092;28;20601;-49
2022/03/07 03:42:38;;;;;;;6.70;6.10;;;;;;;-4.03;100.00;97537.53;4944536;28;20321;-52
2022/03/07 03:45:08;;;;;;;8.17;7.33;;;;;;;-4.07;100.00;97534.31;4959217;28;20345;-48
2022/03/07 03:47:38;;;;;;;6.87;6.33;;;;;;;-4.01;100.00;97536.56;4963819;28;20812;-53
2022/03/07 03:50:08;;;;;;;8.10;7.30;;;;;;;-4.04;100.00;97538.47;4932038;28;20214;-49
2022/03/07 03:52:37;;;;;;;9.13;6.97;;;;;;;-4.01;100.00;97536.56;4922787;28;20236;-49
2022/03/07 03:55:06;;;;;;;8.50;6.87;;;;;;;-4.04;100.00;97534.13;4962485;28;20202;-51
2022/03/07 03:57:34;;;;;;;7.60;6.83;;;;;;;-4.04;100.00;97531.53;4947333;28;20886;-55
2022/03/07 04:00:05;;;;;;;7.60;6.90;;;;;;;-4.00;100.00;97545.97;4930095;28;20264;-51
2022/03/07 04:02:33;;;;;;;11.23;7.87;;;;;;;-4.01;100.00;97546.91;4961476;28;20265;-49
2022/03/07 04:05:04;;;;;;;9.90;7.27;;;;;;;-3.98;100.00;97546.72;4960122;28;20502;-53
2022/03/07 04:07:32;;;;;;;6.93;6.33;;;;;;;-4.05;100.00;97544.56;4895792;28;20728;-52
2022/03/07 04:10:00;;;;;;;8.23;7.33;;;;;;;-4.08;100.00;97550.75;4965599;28;20546;-50
2022/03/07 04:12:28;;;;;;;9.77;6.47;;;;;;;-4.10;100.00;97556.00;4930786;28;20220;-52
2022/03/07 04:14:56;;;;;;;8.20;7.50;;;;;;;-4.12;100.00;97557.84;4963855;28;20289;-49
2022/03/07 04:17:25;;;;;;;8.37;7.57;;;;;;;-4.03;100.00;97553.06;4960375;28;20297;-54
2022/03/07 04:19:53;;;;;;;8.30;7.30;;;;;;;-3.98;100.00;97556.25;4957668;28;20802;-49
2022/03/07 04:22:22;;;;;;;7.00;6.30;;;;;;;-4.07;100.00;97555.81;4917960;28;20218;-55
2022/03/07 04:24:50;;;;;;;7.47;6.77;;;;;;;-3.93;100.00;97556.84;4960753;28;20254;-51
2022/03/07 04:27:19;;;;;;;8.30;7.60;;;;;;;-4.01;100.00;97559.00;4930266;28;20771;-52
2022/03/07 04:29:47;;;;;;;6.93;6.37;;;;;;;-4.11;100.00;97549.16;4958363;28;20297;-48
2022/03/07 04:32:15;;;;;;;8.03;7.30;;;;;;;-4.12;100.00;97559.59;4962673;28;20241;-53
2022/03/07 04:34:43;;;;;;;7.40;6.70;;;;;;;-4.10;100.00;97557.75;4962941;28;20316;-47
2022/03/07 04:37:11;;;;;;;7.83;6.87;;;;;;;-4.12;100.00;97550.06;4963880;28;20513;-51
2022/03/07 04:39:41;;;;;;;7.57;6.80;;;;;;;-4.08;100.00;97556.75;4891434;28;20221;-51
2022/03/07 04:42:09;;;;;;;8.03;7.20;;;;;;;-3.97;100.00;97556.16;4957992;28;20936;-51
2022/03/07 04:44:37;;;;;;;7.93;7.23;;;;;;;-4.00;100.00;97558.09;4946963;28;20225;-53
2022/03/07 04:47:06;;;;;;;12.10;8.40;;;;;;;-4.04;100.00;97561.75;4958490;28;20226;-54
2022/03/07 04:49:34;;;;;;;8.20;7.40;;;;;;;-4.07;100.00;97558.41;4966549;28;20296;-53
2022/03/07 04:52:02;;;;;;;8.47;7.77;;;;;;;-4.03;100.00;97563.44;4957449;28;20565;-51
2022/03/07 04:54:34;;;;;;;9.87;8.93;;;;;;;-4.02;100.00;97567.69;4918572;28;20236;-52
2022/03/07 04:57:05;;;;;;;11.17;8.37;;;;;;;-3.97;100.00;97571.69;4958527;28;20364;-54
2022/03/07 04:59:33;;;;;;;10.03;9.03;;;;;;;-3.97;100.00;97566.53;4946377;28;20214;-55
2022/03/07 05:02:01;;;;;;;9.90;7.60;;;;;;;-3.98;100.00;97576.94;4958464;28;20407;-48
2022/03/07 05:04:29;;;;;;;8.63;7.87;;;;;;;-4.01;100.00;97577.97;4947843;28;20741;-51
2022/03/07 05:06:58;;;;;;;9.97;9.00;;;;;;;-4.06;100.00;97582.56;4957230;28;20344;-46
2022/03/07 05:09:26;;;;;;;10.83;9.10;;;;;;;-4.01;100.00;97584.88;4965579;28;20207;-47
2022/03/07 05:11:54;;;;;;;10.40;8.67;;;;;;;-4.05;100.00;97580.78;4920828;28;20645;-48
2022/03/07 05:14:23;;;;;;;9.53;8.63;;;;;;;-4.04;100.00;97590.22;4944735;28;20321;-51
2022/03/07 05:16:52;;;;;;;10.37;9.23;;;;;;;-4.14;100.00;97582.16;4955306;28;20749;-49
2022/03/07 05:19:20;;;;;;;10.33;9.20;;;;;;;-4.18;100.00;97576.28;4961965;28;20320;-53
2022/03/07 05:21:48;;;;;;;9.43;8.30;;;;;;;-4.16;100.00;97586.56;4964310;28;20292;-49
2022/03/07 05:24:16;;;;;;;10.53;9.23;;;;;;;-4.05;100.00;97588.56;4963489;28;20234;-50
2022/03/07 05:26:44;;;;;;;9.90;8.97;;;;;;;-4.04;100.00;97587.63;4918143;28;20266;-50
2022/03/07 05:29:13;;;;;;;9.57;8.57;;;;;;;-4.05;100.00;97586.81;4939417;28;20820;-51
2022/03/07 05:31:43;;;;;;;9.97;8.97;;;;;;;-4.13;100.00;97597.56;4948085;28;20210;-50
2022/03/07 05:34:11;;;;;;;10.37;9.37;;;;;;;-3.92;100.00;97602.53;4963563;28;20720;-52
2022/03/07 05:36:40;;;;;;;10.67;9.63;;;;;;;-4.07;100.00;97594.66;4960878;28;20320;-47
2022/03/07 05:39:08;;;;;;;10.70;9.03;;;;;;;-3.96;100.00;97593.25;4955912;28;20573;-53
2022/03/07 05:41:37;;;;;;;9.63;8.63;;;;;;;-3.87;100.00;97603.13;4921187;28;20708;-55
2022/03/07 05:44:05;;;;;;;9.27;8.37;;;;;;;-4.04;100.00;97601.44;4946074;28;20948;-52
2022/03/07 05:46:33;;;;;;;11.17;10.07;;;;;;;-4.02;100.00;97599.59;4959162;28;20726;-49
2022/03/07 05:49:03;;;;;;;10.70;9.67;;;;;;;-4.09;100.00;97601.66;4957430;28;20212;-49
2022/03/07 05:51:32;;;;;;;10.83;9.73;;;;;;;-3.84;100.00;97595.19;4959127;28;20225;-49
2022/03/07 05:54:00;;;;;;;10.73;9.70;;;;;;;-4.09;100.00;97606.84;4961725;28;20210;-51
2022/03/07 05:56:28;;;;;;;10.87;10.00;;;;;;;-3.90;100.00;97602.44;4916837;28;20925;-53
2022/03/07 05:58:56;;;;;;;14.73;10.80;;;;;;;-3.99;100.00;97603.75;4958074;28;20592;-56
2022/03/07 06:01:25;;;;;;;11.90;10.70;;;;;;;-3.71;100.00;97603.13;4928566;28;20469;-52
2022/03/07 06:03:53;;;;;;;11.37;10.20;;;;;;;-3.87;100.00;97610.88;4957658;28;20221;-57
2022/03/07 06:06:22;;;;;;;13.77;10.27;;;;;;;-3.94;100.00;97607.78;4957102;28;20222;-51
2022/03/07 06:08:51;;;;;;;10.67;9.57;;;;;;;-3.98;100.00;97606.28;4966122;28;20205;-54
2022/03/07 06:11:19;;;;;;;12.20;11.00;;;;;;;-3.96;100.00;97590.69;4936080;28;20248;-50
2022/03/07 06:13:47;;;;;;;14.67;11.33;;;;;;;-3.84;100.00;97610.72;4958896;28;20747;-54
2022/03/07 06:16:15;;;;;;;10.97;9.73;;;;;;;-3.61;100.00;97605.19;4930244;28;20237;-47
2022/03/07 06:18:44;;;;;;;12.37;10.40;;;;;;;-3.52;100.00;97610.72;4965696;28;20301;-49
2022/03/07 06:21:12;;;;;;;14.17;10.57;;;;;;;-3.66;100.00;97597.66;4958510;28;20210;-50
2022/03/07 06:23:42;;;;;;;12.77;11.47;;;;;;;-3.58;100.00;97600.69;4967568;28;20296;-51
2022/03/07 06:26:11;;;;;;;11.23;10.13;;;;;;;-3.48;100.00;97590.63;4955509;28;20958;-51
2022/03/07 06:28:39;;;;;;;11.20;10.07;;;;;;;-3.62;100.00;97601.75;4941889;28;20774;-50
2022/03/07 06:31:07;;;;;;;12.50;10.50;;;;;;;-3.64;100.00;97604.44;4964864;28;20757;-50
2022/03/07 06:33:36;;;;;;;12.20;10.90;;;;;;;-3.74;100.00;97616.25;4953174;28;20213;-52
2022/03/07 06:36:06;;;;;;;12.40;10.70;;;;;;;-3.65;100.00;97601.94;4963581;28;20229;-53
2022/03/07 06:38:34;;;;;;;11.40;10.37;;;;;;;-3.38;100.00;97607.34;4966041;28;20213;-47
2022/03/07 06:41:04;;;;;;;12.83;11.60;;;;;;;-3.52;100.00;97612.44;4968309;28;20637;-50
2022/03/07 06:43:32;;;;;;;11.77;10.70;;;;;;;-3.58;100.00;97611.06;4918297;28;20611;-53
2022/03/07 06:46:01;;;;;;;11.83;10.63;;;;;;;-3.64;100.00;97613.94;4961939;28;20233;-50
2022/03/07 06:48:29;;;;;;;13.50;10.97;;;;;;;-3.75;100.00;97616.31;4948317;28;20367;-52
2022/03/07 06:50:57;;;;;;;11.77;10.53;;;;;;;-3.75;100.00;97618.91;4962252;28;20659;-52
2022/03/07 06:53:25;;;;;;;13.27;11.60;;;;;;;-3.62;100.00;97622.47;4947540;28;20309;-51
2022/03/07 06:55:53;;;;;;;13.97;11.57;;;;;;;-3.46;100.00;97622.47;4967653;28;20317;-44
2022/03/07 06:58:23;;;;;;;17.47;13.90;;;;;;;-3.42;100.00;97633.50;4916846;28;20229;-51
2022/03/07 07:00:51;;;;;;;11.80;10.50;;;;;;;-3.36;100.00;97634.00;4946001;28;20360;-50
2022/03/07 07:03:19;;;;;;;16.43;11.10;;;;;;;-3.50;100.00;97636.50;4952692;28;20214;-51
2022/03/07 07:05:48;;;;;;;12.10;10.83;;;;;;;-3.39;100.00;97647.13;4964016;28;20770;-50
2022/03/07 07:08:16;;;;;;;11.50;10.37;;;;;;;-3.41;100.00;97648.13;4958471;28;20608;-49
2022/03/07 07:10:44;;;;;;;14.80;10.53;;;;;;;-3.40;100.00;97642.03;4965616;28;20903;-51
2022/03/07 07:13:14;;;;;;;12.07;10.87;;;;;;;-3.34;100.00;97646.88;4924440;28;21454;-52
2022/03/07 07:15:44;;;;;;;14.50;11.90;;;;;;;-3.27;100.00;97649.97;4963112;28;20226;-52
2022/03/07 07:18:12;;;;;;;14.63;11.20;;;;;;;-3.30;100.00;97644.94;4950550;28;20296;-54
2022/03/07 07:20:40;;;;;;;12.73;11.43;;;;;;;-3.25;100.00;97655.88;4963523;28;20254;-52
2022/03/07 07:23:08;;;;;;;12.00;10.90;;;;;;;-3.24;100.00;97655.78;4963211;28;20525;-56
2022/03/07 07:25:37;;;;;;;12.50;11.03;;;;;;;-3.22;100.00;97658.31;4952173;28;20244;-54
2022/03/07 07:28:05;;;;;;;11.97;10.90;;;;;;;-3.28;100.00;97663.84;4919509;28;20868;-54
2022/03/07 07:30:33;;;;;;;13.37;12.07;;;;;;;-3.18;100.00;97667.59;4947216;28;20214;-52
2022/03/07 07:33:03;;;;;;;13.10;11.17;;;;;;;-3.07;100.00;97665.22;4961430;28;20317;-51
2022/03/07 07:35:33;;;;;;;12.57;11.20;;;;;;;-2.88;100.00;97669.38;4949775;28;20234;-53
2022/03/07 07:38:02;;;;;;;15.10;12.40;;;;;;;-2.76;100.00;97667.84;4959398;28;20217;-49
2022/03/07 07:40:30;;;;;;;13.50;11.97;;;;;;;-2.62;100.00;97680.00;4962933;28;20476;-49
2022/03/07 07:42:58;;;;;;;13.53;11.90;;;;;;;-2.82;100.00;97678.56;4922094;28;20340;-49
2022/03/07 07:45:31;;;;;;;13.07;11.33;;;;;;;-2.64;100.00;97689.66;4954912;28;20230;-53
2022/03/07 07:48:00;;;;;;;15.27;11.90;;;;;;;-2.52;100.00;97695.84;4959578;28;20510;-53
2022/03/07 07:50:30;;;;;;;12.47;11.17;;;;;;;-2.31;100.00;97695.53;4952849;28;20301;-54
2022/03/07 07:52:58;;;;;;;14.30;12.43;;;;;;;-2.25;100.00;97698.63;4943343;28;20625;-51
2022/03/07 07:55:26;;;;;;;13.90;11.67;;;;;;;-2.38;100.00;97705.44;4960369;28;20573;-51
2022/03/07 07:57:55;;;;;;;14.60;12.27;;;;;;;-2.41;100.00;97703.03;4955467;28;20245;-53
2022/03/07 08:00:23;;;;;;;13.60;12.20;;;;;;;-2.28;99.76;97705.75;4900129;28;20297;-54
2022/03/07 08:02:52;;;;;;;13.50;11.43;;;;;;;-2.25;95.27;97706.41;4952669;28;20218;-52
2022/03/07 08:05:20;;;;;;;13.63;12.27;;;;;;;-2.00;91.92;97712.72;4944539;28;20252;-53
2022/03/07 08:07:50;;;;;;;13.60;12.17;;;;;;;-1.97;91.62;97707.34;4966134;28;20518;-53
2022/03/07 08:10:19;;;;;;;13.60;12.30;;;;;;;-1.81;84.17;97709.84;4962244;28;20662;-53
2022/03/07 08:12:47;;;;;;;12.77;11.47;;;;;;;-1.81;84.16;97720.25;4954827;28;20312;-50
2022/03/07 08:15:19;;;;;;;12.80;11.50;;;;;;;-1.60;79.65;97712.09;4929754;28;20213;-50
2022/03/07 08:17:49;;;;;;;13.57;12.17;;;;;;;-1.49;79.89;97711.41;4957986;28;20614;-50
2022/03/07 08:20:19;;;;;;;13.37;11.60;;;;;;;-1.14;78.63;97712.72;4948052;28;20595;-55
2022/03/07 08:22:48;;;;;;;13.87;12.40;;;;;;;-1.53;69.24;97718.56;4958235;28;20338;-47
2022/03/07 08:25:18;;;;;;;13.93;12.53;;;;;;;-1.49;69.75;97724.41;4962741;28;20720;-54
2022/03/07 08:27:46;;;;;;;13.20;11.90;;;;;;;-1.56;76.76;97721.34;4952819;28;20625;-54
2022/03/07 08:30:15;;;;;;;14.97;13.40;;;;;;;-1.75;82.21;97732.84;4924321;28;20232;-49
2022/03/07 08:32:44;;;;;;;15.73;13.23;;;;;;;-2.11;89.28;97734.13;4954759;28;20523;-46
2022/03/07 08:35:12;;;;;;;13.60;12.40;;;;;;;-2.23;91.39;97735.72;4951265;28;20803;-49
2022/03/07 08:37:41;;;;;;;13.60;12.30;;;;;;;-2.52;84.77;97735.63;4955651;28;20206;-48
2022/03/07 08:40:10;;;;;;;14.57;12.03;;;;;;;-2.60;94.03;97737.00;4961847;28;20810;-48
2022/03/07 08:42:40;;;;;;;15.53;12.90;;;;;;;-2.41;92.87;97744.56;4950066;28;20205;-48
2022/03/07 08:45:09;;;;;;;14.33;12.60;;;;;;;-1.79;88.27;97741.75;4924108;28;20214;-48
2022/03/07 08:47:38;;;;;;;12.47;11.27;;;;;;;-1.13;74.12;97750.81;4953968;28;20202;-47
2022/03/07 08:50:08;;;;;;;16.70;12.17;;;;;;;-1.00;73.08;97749.09;4947507;28;20336;-54
2022/03/07 08:52:36;;;;;;;14.77;12.73;;;;;;;-0.95;73.06;97744.44;4960591;28;20317;-52
2022/03/07 08:55:06;;;;;;;12.13;10.37;;;;;;;-0.63;66.42;97748.53;4964132;28;20233;-50
2022/03/07 08:57:34;;;;;;;13.83;12.37;;;;;;;-0.88;64.05;97747.47;4949291;28;20398;-50
2022/03/07 09:00:05;;;;;;;13.43;11.17;;;;;;;-0.81;66.19;97751.34;4929525;28;20726;-51
2022/03/07 09:02:45;;;;;;;13.13;11.90;;;;;;;-1.12;65.17;97757.69;4961927;28;20408;-51
2022/03/07 09:05:14;;;;;;;11.37;10.23;;;;;;;-1.78;66.50;97763.41;4959412;28;20280;-51
2022/03/07 09:07:42;;;;;;;12.03;10.00;;;;;;;-1.86;69.22;97763.84;4945868;28;20410;-47
2022/03/07 09:10:11;;;;;;;11.73;10.50;;;;;;;-2.13;67.90;97755.94;4963154;28;20269;-48
2022/03/07 09:12:39;;;;;;;10.63;9.63;;;;;;;-2.27;68.46;97759.34;4950095;28;20268;-48
2022/03/07 09:15:10;;;;;;;11.87;10.77;;;;;;;-2.32;69.41;97767.38;4960945;28;20210;-49
2022/03/07 09:17:38;;;;;;;11.47;10.10;;;;;;;-2.13;71.62;97763.72;4922181;28;20489;-46
2022/03/07 09:20:08;;;;;;;11.67;10.53;;;;;;;-2.05;70.67;97757.16;4956650;28;20246;-49
2022/03/07 09:22:36;;;;;;;12.37;11.07;;;;;;;-1.83;71.29;97773.22;4944547;28;20213;-50
2022/03/07 09:25:05;;;;;;;11.93;10.73;;;;;;;-1.88;69.98;97762.28;4938980;28;20401;-48
2022/03/07 09:27:35;;;;;;;10.33;9.20;;;;;;;-1.91;69.08;97768.50;4961909;28;20232;-54
2022/03/07 09:30:04;;;;;;;10.57;9.47;;;;;;;-1.72;68.25;97765.63;4948167;28;20206;-49
2022/03/07 09:32:33;;;;;;;13.27;10.53;;;;;;;-1.59;66.26;97760.53;4925280;28;20214;-52
2022/03/07 09:35:02;;;;;;;10.90;9.83;;;;;;;-1.43;62.60;97755.22;4958324;28;20406;-52
2022/03/07 09:37:30;;;;;;;11.70;10.50;;;;;;;-1.11;62.40;97754.16;4951874;28;20464;-53
2022/03/07 09:39:58;;;;;;;9.87;9.07;;;;;;;-1.07;61.16;97751.28;4961024;28;20426;-52
2022/03/07 09:42:27;;;;;;;10.10;9.27;;;;;;;-0.91;62.00;97755.50;4960616;28;20205;-52
2022/03/07 09:44:56;;;;;;;10.97;9.97;;;;;;;-0.86;60.91;97753.41;4951576;28;20625;-52
2022/03/07 09:47:24;;;;;;;9.90;9.00;;;;;;;-0.83;62.44;97762.81;4930290;28;20317;-52
2022/03/07 09:49:54;;;;;;;10.17;9.07;;;;;;;-0.65;60.01;97761.63;4953749;28;20856;-53
2022/03/07 09:52:22;;;;;;;8.60;7.80;;;;;;;-0.22;57.06;97757.13;4947900;28;20308;-50
2022/03/07 09:54:50;;;;;;;8.80;8.00;;;;;;;0.03;56.13;97758.97;4955930;28;20333;-52
2022/03/07 09:57:18;;;;;;;9.40;8.53;;;;;;;0.10;57.16;97759.34;4961059;28;20228;-48
2022/03/07 09:59:46;;;;;;;9.60;8.80;;;;;;;0.97;54.89;97756.84;4950545;28;20578;-49
2022/03/07 10:02:19;;;;;;;8.40;7.60;;;;;;;1.54;50.22;97749.31;4925536;28;20951;-51
2022/03/07 10:04:47;;;;;;;7.80;7.10;;;;;;;1.16;49.09;97747.72;4959050;28;20301;-51
2022/03/07 10:07:17;;;;;;;8.10;7.40;;;;;;;1.29;49.24;97750.25;4948452;28;20521;-55
2022/03/07 10:09:46;;;;;;;8.53;7.33;;;;;;;1.02;48.86;97759.13;4959044;28;20237;-53
2022/03/07 10:12:14;;;;;;;9.50;8.60;;;;;;;1.11;49.88;97761.09;4957666;28;22022;-49
2022/03/07 10:14:44;;;;;;;8.73;7.83;;;;;;;1.38;48.38;97749.59;4958990;28;20767;-56
2022/03/07 10:17:20;;;;;;;7.83;7.13;;;;;;;1.27;49.40;97749.53;4950809;28;21007;-50
2022/03/07 10:19:49;;;;;;;15.50;13.87;;;;;;;0.98;49.39;97748.06;4924297;28;20249;-53
2022/03/07 10:22:22;;;;;;;8.03;7.23;;;;;;;1.62;48.19;97753.94;4953935;28;20303;-52
2022/03/07 10:24:59;;;;;;;7.90;7.20;;;;;;;1.48;48.35;97761.97;4955563;28;20302;-52
2022/03/07 10:27:29;;;;;;;7.03;6.43;;;;;;;1.52;48.24;97766.88;4965085;28;20782;-53
2022/03/07 10:29:57;;;;;;;8.40;7.70;;;;;;;1.04;48.78;97775.53;4949068;28;20249;-53
2022/03/07 10:32:25;;;;;;;7.57;6.87;;;;;;;0.99;49.70;97769.81;4962858;28;20766;-55
2022/03/07 10:34:54;;;;;;;8.40;7.60;;;;;;;0.79;50.81;97768.59;4927762;28;20793;-54
2022/03/07 10:37:34;;;;;;;9.43;8.63;;;;;;;0.56;50.47;97774.44;4962080;28;20318;-50
2022/03/07 10:40:03;;;;;;;8.87;8.17;;;;;;;0.74;51.44;97761.09;4952372;28;20305;-49
2022/03/07 10:42:31;;;;;;;10.83;7.17;;;;;;;1.13;49.90;97759.19;4963347;28;20237;-52
2022/03/07 10:45:05;;;;;;;6.87;6.17;;;;;;;0.98;50.18;97763.72;4956937;28;20199;-52
2022/03/07 10:47:33;;;;;;;7.90;6.97;;;;;;;1.05;50.80;97760.69;4956077;28;20226;-52
2022/03/07 10:50:02;;;;;;;6.73;6.23;;;;;;;1.53;49.92;97752.03;4930478;28;21062;-51
2022/03/07 10:52:37;;;;;;;7.00;6.40;;;;;;;1.54;50.24;97740.63;4959783;28;20285;-51
2022/03/07 10:55:07;;;;;;;12.47;8.73;;;;;;;1.92;48.76;97739.56;4953386;28;20237;-50
2022/03/07 10:57:37;;;;;;;8.27;7.47;;;;;;;1.19;49.44;97731.81;4964139;28;20312;-51
2022/03/07 11:00:10;;;;;;;8.03;7.33;;;;;;;1.35;49.36;97735.91;4961763;28;20215;-51
2022/03/07 11:02:40;;;;;;;8.07;7.30;;;;;;;1.48;50.62;97741.09;4954527;28;20297;-54
2022/03/07 11:05:10;;;;;;;7.67;7.07;;;;;;;2.37;49.69;97738.78;4965060;28;20289;-49
2022/03/07 11:07:41;;;;;;;8.40;7.43;;;;;;;2.68;47.61;97733.78;4930241;28;20339;-50
2022/03/07 11:10:11;;;;;;;8.03;7.43;;;;;;;2.85;46.45;97739.47;4954081;28;20347;-55
2022/03/07 11:12:40;;;;;;;7.93;7.13;;;;;;;2.65;48.45;97736.66;4967836;28;20207;-54
2022/03/07 11:15:10;;;;;;;7.30;6.70;;;;;;;3.06;47.10;97736.91;4964366;28;20210;-50
2022/03/07 11:17:40;;;;;;;6.73;6.17;;;;;;;3.81;44.89;97734.38;4964716;28;20234;-56
2022/03/07 11:20:09;;;;;;;8.37;7.03;;;;;;;2.41;47.99;97727.13;4951511;28;20329;-51
2022/03/07 11:22:39;;;;;;;8.47;7.57;;;;;;;2.31;47.84;97724.38;4936204;28;20797;-55
2022/03/07 11:25:09;;;;;;;10.13;8.10;;;;;;;2.24;48.59;97728.44;4962402;28;20198;-56
2022/03/07 11:27:38;;;;;;;7.83;7.13;;;;;;;2.26;49.05;97729.13;4952098;28;20317;-51
2022/03/07 11:30:17;;;;;;;9.73;7.10;;;;;;;2.16;48.99;97721.16;4962260;28;20296;-53
2022/03/07 11:32:45;;;;;;;7.63;6.97;;;;;;;2.46;48.75;97714.53;4957988;28;21574;-53